Flight Track Log - Related Links

Times and Time Zones

All times are in EDT time to prevent confusion due to time zone crossing. See the EGF2764 flight status page for this flight to view local times or setup timezone preferences in your user account.

Time Position Orientation Groundspeed Altitude Reporting Facility
EDT Latitude Longitude Course Direction KTS MPH feet Rate Location/Type
Sun 07:10:15 PM 32.3024 -86.4215 275° West  Level FlightAware Approximate
Sun 07:11:15 PM 32.3000 -86.5397 329° Northwest  Level FlightAware Approximate
Sun 07:12:40 PM 32.3119 -86.5481 273° West 245 282 36,000  Level Atlanta Center
Sun 07:13:40 PM 32.3161 -86.6417 272° West 251 289 6,300 -13,750 Descending Atlanta Center
Sun 07:14:40 PM 32.3183 -86.7325 271° West 271 312 8,500 1,750 Climbing Atlanta Center
Sun 07:15:40 PM 32.3203 -86.8286 274° West 282 325 9,800 950 Climbing Atlanta Center
Sun 07:16:40 PM 32.3264 -86.9367 273° West 310 357 10,400 1,286 Climbing Atlanta Center
Sun 07:22:40 PM 32.3514 -87.6481 272° West 373 429 18,800 1,452 Climbing Atlanta Center
Sun 07:25:00 PM 32.3581 -87.9300 271° West 371 427 22,500 1,650 Climbing Memphis Center
Sun 07:26:00 PM 32.3603 -88.0456 271° West 360 414 24,300 1,400 Climbing Memphis Center
Sun 07:27:00 PM 32.3622 -88.1611 272° West 360 414 25,300 950 Climbing Memphis Center
Sun 07:28:00 PM 32.3664 -88.2839 271° West 365 420 26,200 1,000 Climbing Memphis Center
Sun 07:29:00 PM 32.3686 -88.4069 272° West 370 426 27,300 1,250 Climbing Memphis Center
Sun 07:30:00 PM 32.3725 -88.5297 273° West 376 433 28,700 1,250 Climbing Memphis Center
Sun 07:31:00 PM 32.3783 -88.6453 271° West 371 427 29,800 1,150 Climbing Memphis Center
Sun 07:32:00 PM 32.3800 -88.7683 274° West 366 421 31,000 1,000 Climbing Memphis Center
Sun 07:33:00 PM 32.3875 -88.8886 276° West 366 421 31,800 2,500 Climbing Memphis Center
Sun 07:34:00 PM 32.3994 -89.0164 277° West 371 427 36,000 150 Climbing Memphis Center
Sun 07:35:00 PM 32.4136 -89.1639 277° West 401 461 32,100 -1,300 Descending Memphis Center
Sun 07:36:00 PM 32.4272 -89.2942 277° West 408 470 33,400 950 Climbing Memphis Center
Sun 07:37:00 PM 32.4408 -89.4244 275° West 408 470 34,000 750 Climbing Memphis Center
Sun 07:38:00 PM 32.4500 -89.5522 277° West 408 470 34,900 900 Climbing Memphis Center
Sun 07:39:00 PM 32.4633 -89.6828 276° West 408 470 35,800 550 Climbing Memphis Center
Sun 07:40:00 PM 32.4744 -89.8131 277° West 403 464 36,000 100 Climbing Memphis Center
Sun 07:41:00 PM 32.4875 -89.9436 276° West 403 464 36,000  Level Memphis Center
Sun 07:42:00 PM 32.4983 -90.0764 274° West 403 464 36,000  Level Memphis Center
Sun 07:43:00 PM 32.5069 -90.2119 271° West 403 464 36,000  Level Memphis Center
Sun 07:44:00 PM 32.5092 -90.3425 270° West 403 464 36,000  Level Memphis Center
Sun 07:45:00 PM 32.5092 -90.4756 272° West 403 464 36,000  Level Memphis Center
Sun 07:46:00 PM 32.5131 -90.6061 271° West 403 464 36,000  Level Memphis Center
Sun 07:47:00 PM 32.5147 -90.7367 271° West 403 464 36,000  Level Memphis Center
Sun 07:48:00 PM 32.5164 -90.8697 270° West 403 464 36,000  Level Memphis Center
Sun 07:49:00 PM 32.5158 -91.0028 270° West 403 464 36,000  Level Memphis Center
Sun 07:50:00 PM 32.5150 -91.1308 271° West 403 464 36,000  Level Memphis Center
Sun 07:52:23 PM 32.5200 -91.4294 269° West 399 459 36,000  Level Fort Worth Center
Sun 07:53:23 PM 32.5175 -91.5578 271° West 399 459 36,000  Level Fort Worth Center
Sun 07:54:23 PM 32.5192 -91.6856 269° West 399 459 36,000  Level Fort Worth Center
Sun 07:55:23 PM 32.5167 -91.8139 271° West 404 465 36,000  Level Fort Worth Center
Sun 07:56:23 PM 32.5183 -91.9469 271° West 404 465 36,000  Level Fort Worth Center
Sun 07:57:23 PM 32.5197 -92.0747 265° West 404 465 36,000  Level Fort Worth Center
Sun 07:58:23 PM 32.5106 -92.2033 264° West 404 465 36,000  Level Fort Worth Center
Sun 07:59:23 PM 32.4989 -92.3297 267° West 399 459 36,000  Level Fort Worth Center
Sun 08:00:23 PM 32.4919 -92.4656 265° West 387 445 36,000  Level Fort Worth Center
Sun 08:01:23 PM 32.4822 -92.5917 264° West 387 445 36,000  Level Fort Worth Center
Sun 08:02:23 PM 32.4706 -92.7228 265° West 387 445 36,000  Level Fort Worth Center
Sun 08:03:23 PM 32.4619 -92.8339 265° West 387 445 36,000  Level Fort Worth Center
Sun 08:04:23 PM 32.4519 -92.9625 265° West 387 445 36,000  Level Fort Worth Center
Sun 08:05:23 PM 32.4419 -93.0933 265° West 387 445 36,000  Level Fort Worth Center
Sun 08:06:23 PM 32.4317 -93.2194 263° West 387 445 36,000  Level Fort Worth Center
Sun 08:07:23 PM 32.4192 -93.3481 266° West 387 445 36,000  Level Fort Worth Center
Sun 08:08:23 PM 32.4108 -93.4764 264° West 387 445 36,000  Level Fort Worth Center
Sun 08:09:23 PM 32.4000 -93.6022 271° West 387 445 36,000  Level Fort Worth Center
Sun 08:10:23 PM 32.4017 -93.7300 271° West 387 445 36,000  Level Fort Worth Center
Sun 08:11:23 PM 32.4033 -93.8581 272° West 387 445 36,000  Level Fort Worth Center
Sun 08:12:23 PM 32.4069 -93.9906 271° West 392 451 36,000  Level Fort Worth Center
Sun 08:13:23 PM 32.4083 -94.1161 271° West 392 451 36,000  Level Fort Worth Center
Sun 08:14:23 PM 32.4094 -94.2489 271° West 398 458 36,000  Level Fort Worth Center
Sun 08:15:23 PM 32.4106 -94.3769 272° West 398 458 36,000  Level Fort Worth Center
Sun 08:16:23 PM 32.4136 -94.5097 269° West 403 464 36,000  Level Fort Worth Center
Sun 08:17:23 PM 32.4122 -94.6303 270° West 397 457 36,000  Level Fort Worth Center
Sun 08:18:23 PM 32.4131 -94.7631 261° West 397 457 36,000  Level Fort Worth Center
Sun 08:19:23 PM 32.3950 -94.8939 261° West 402 463 36,000  Level Fort Worth Center
Sun 08:20:23 PM 32.3786 -95.0222 260° West 407 468 36,000  Level Fort Worth Center
Sun 08:21:23 PM 32.3600 -95.1483 259° West 407 468 36,000  Level Fort Worth Center
Sun 08:22:23 PM 32.3392 -95.2767 260° West 402 463 36,000 -450 Level Fort Worth Center
Sun 08:23:23 PM 32.3206 -95.4000 273° West 397 457 35,100 -1,250 Descending Fort Worth Center
Sun 08:24:23 PM 32.3267 -95.5278 275° West 386 444 33,500 -1,800 Descending Fort Worth Center
Sun 08:25:23 PM 32.3369 -95.6553 274° West 387 445 31,500 -2,050 Descending Fort Worth Center
Sun 08:26:23 PM 32.3450 -95.7978 275° West 387 445 29,400 -2,200 Descending Fort Worth Center
Sun 08:27:23 PM 32.3550 -95.9256 273° West 392 451 27,100 -2,450 Descending Fort Worth Center
Sun 08:28:23 PM 32.3606 -96.0608 274° West 407 468 24,500 -2,750 Descending Fort Worth Center
Sun 08:29:23 PM 32.3683 -96.1958 274° West 412 474 21,600 -2,850 Descending Fort Worth Center
Sun 08:30:23 PM 32.3756 -96.3236 273° West 397 457 18,800 -2,500 Descending Fort Worth Center
Sun 08:31:23 PM 32.3808 -96.4294 308° West 384 442 16,600 -2,450 Descending Fort Worth Center
Sun 08:32:23 PM 32.4442 -96.5272 316° Northwest 333 383 13,900 -2,600 Descending Fort Worth Center
Sun 08:33:23 PM 32.5072 -96.6006 316° Northwest 344 396 11,400 -1,450 Descending Fort Worth Center
Sun 08:34:23 PM 32.5786 -96.6836 313° West 335 386 11,000 -200 Descending Fort Worth Center
Sun 08:35:23 PM 32.6311 -96.7497 321° Northwest 322 371 11,000  Level Fort Worth Center
Sun 08:36:03 PM 32.6833 -96.8000 314° West 310 357 11,000  Level Dallas / Fort Worth TRACON
Sun 08:37:09 PM 32.7500 -96.8833 348° North 280 322 11,000 -50 Level Dallas / Fort Worth TRACON
Sun 08:38:03 PM 32.8167 -96.9000 360° North 282 325 10,900 -895 Descending Dallas / Fort Worth TRACON
Sun 08:39:03 PM 32.8833 -96.9000 360° North 283 326 9,300 -1,785 Descending Dallas / Fort Worth TRACON
Sun 08:40:04 PM 32.9667 -96.9000 360° North 254 292 7,300 -1,587 Descending Dallas / Fort Worth TRACON
Sun 08:41:04 PM 33.0333 -96.9000 360° North 254 292 6,100 -650 Descending Dallas / Fort Worth TRACON
Sun 08:42:04 PM 33.1000 -96.9000 320° Northwest 247 284 6,000 -350 Descending Dallas / Fort Worth TRACON
Sun 08:43:04 PM 33.1500 -96.9500 253° West 242 278 5,400 -450 Descending Dallas / Fort Worth TRACON
Sun 08:44:04 PM 33.1333 -97.0167 196° South 202 232 5,100 -800 Descending Dallas / Fort Worth TRACON
Sun 08:45:04 PM 33.0833 -97.0333 196° South 167 192 3,800 -1,300 Descending Dallas / Fort Worth TRACON

Login

Don't have an account? Register now (free) for customized features, flight alerts, and more!